createdAt,value
2019-04-21T00:02:18.658Z,7.53
2019-04-21T00:04:53.247Z,5.23
2019-04-21T00:07:31.913Z,6.27
2019-04-21T00:10:18.500Z,4.50
2019-04-21T00:12:28.650Z,4.97
2019-04-21T00:14:49.435Z,7.47
2019-04-21T00:17:17.245Z,5.00
2019-04-21T00:19:46.034Z,6.97
2019-04-21T00:22:29.337Z,6.43
2019-04-21T00:24:56.819Z,6.90
2019-04-21T00:27:32.420Z,6.43
2019-04-21T00:30:04.558Z,6.57
2019-04-21T00:32:29.278Z,6.87
2019-04-21T00:34:52.306Z,4.80
2019-04-21T00:37:25.905Z,4.80
2019-04-21T00:40:03.783Z,4.93
2019-04-21T00:42:37.403Z,6.67
2019-04-21T00:45:04.882Z,7.33
2019-04-21T00:47:34.048Z,7.17
2019-04-21T00:50:08.104Z,6.17
2019-04-21T00:53:04.737Z,5.60
2019-04-21T00:55:35.519Z,5.77
2019-04-21T00:58:08.308Z,6.20
2019-04-21T01:00:30.981Z,5.03
2019-04-21T01:03:14.470Z,5.63
2019-04-21T01:05:33.549Z,5.90
2019-04-21T01:07:59.389Z,5.10
2019-04-21T01:10:20.580Z,5.90
2019-04-21T01:12:54.651Z,5.93
2019-04-21T01:15:35.270Z,5.87
2019-04-21T01:18:01.098Z,6.20
2019-04-21T01:20:16.192Z,5.90
2019-04-21T01:22:35.874Z,5.17
2019-04-21T01:25:11.943Z,5.40
2019-04-21T01:27:54.177Z,4.90
2019-04-21T01:30:22.183Z,5.70
2019-04-21T01:32:53.397Z,5.13
2019-04-21T01:35:25.961Z,5.50
2019-04-21T01:37:59.575Z,5.70
2019-04-21T01:40:45.079Z,5.83
2019-04-21T01:43:17.644Z,6.07
2019-04-21T01:45:45.917Z,6.60
2019-04-21T01:48:13.069Z,5.00
2019-04-21T01:50:48.330Z,5.70
2019-04-21T01:53:31.099Z,6.60
2019-04-21T01:56:01.170Z,5.07
2019-04-21T01:58:29.212Z,5.57
2019-04-21T02:01:10.123Z,5.20
2019-04-21T02:06:18.049Z,5.43
2019-04-21T02:08:44.934Z,5.17
2019-04-21T02:11:11.266Z,5.63
2019-04-21T02:13:53.168Z,5.33
2019-04-21T02:16:16.957Z,6.00
2019-04-21T02:18:43.721Z,4.53
2019-04-21T02:21:00.088Z,5.30
2019-04-21T02:26:16.441Z,6.07
2019-04-21T02:28:50.207Z,5.47
2019-04-21T02:34:01.632Z,5.17
2019-04-21T02:36:30.978Z,6.13
2019-04-21T02:41:23.088Z,5.03
2019-04-21T02:44:00.167Z,5.67
2019-04-21T02:46:31.298Z,6.23
2019-04-21T02:51:27.936Z,6.30
2019-04-21T02:56:33.777Z,5.50
2019-04-21T02:59:06.906Z,5.40
2019-04-21T03:04:34.760Z,6.00
2019-04-21T03:07:14.871Z,6.23
2019-04-21T03:09:37.053Z,5.93
2019-04-21T03:12:11.543Z,6.17
2019-04-21T03:14:56.472Z,5.10
2019-04-21T03:17:17.879Z,4.97
2019-04-21T03:22:14.528Z,5.70
2019-04-21T03:25:20.499Z,5.70
2019-04-21T03:27:28.828Z,5.90
2019-04-21T03:29:48.335Z,6.07
2019-04-21T03:32:55.212Z,5.47
2019-04-21T03:37:25.612Z,6.40
2019-04-21T03:39:47.021Z,6.10
2019-04-21T03:50:01.874Z,6.03
2019-04-21T03:55:12.481Z,5.60
2019-04-21T03:57:46.355Z,6.07
2019-04-21T04:00:21.923Z,6.13
2019-04-21T04:03:35.153Z,5.80
2019-04-21T04:09:06.412Z,6.40
2019-04-21T04:16:15.337Z,6.00
2019-04-21T04:18:48.763Z,6.73
2019-04-21T04:21:15.069Z,5.40
2019-04-21T04:23:47.366Z,6.03
2019-04-21T04:26:07.538Z,5.23
2019-04-21T04:28:49.759Z,6.50
2019-04-21T04:31:18.059Z,5.90
2019-04-21T04:34:24.866Z,6.63
2019-04-21T04:36:19.557Z,6.77
2019-04-21T04:38:39.229Z,6.00
2019-04-21T04:41:25.063Z,5.90
2019-04-21T04:43:44.733Z,6.27
2019-04-21T04:46:34.963Z,6.03
2019-04-21T04:48:51.680Z,5.97
2019-04-21T04:51:11.685Z,5.47
2019-04-21T04:53:45.844Z,6.40
2019-04-21T05:01:24.739Z,6.10
2019-04-21T05:09:03.920Z,6.27
2019-04-21T05:11:30.958Z,6.23
2019-04-21T05:13:55.417Z,6.10
2019-04-21T05:16:32.107Z,6.60
2019-04-21T05:23:45.628Z,6.00
2019-04-21T05:26:03.890Z,6.03
2019-04-21T05:28:32.756Z,6.03
2019-04-21T05:31:31.733Z,6.43
2019-04-21T05:34:17.318Z,6.43
2019-04-21T05:37:08.850Z,6.00
2019-04-21T05:39:43.548Z,6.20
2019-04-21T05:42:05.119Z,6.13
2019-04-21T05:49:55.484Z,6.40
2019-04-21T05:52:19.626Z,6.07
2019-04-21T05:55:01.229Z,7.07
2019-04-21T05:57:20.670Z,7.67
2019-04-21T05:59:54.791Z,6.80
2019-04-21T06:02:36.535Z,7.20
2019-04-21T06:09:57.139Z,6.57
2019-04-21T06:12:31.584Z,6.43
2019-04-21T06:14:55.849Z,6.60
2019-04-21T06:17:30.277Z,6.40
2019-04-21T06:19:57.183Z,7.20
2019-04-21T06:22:23.588Z,7.43
2019-04-21T06:25:24.345Z,7.30
2019-04-21T06:27:40.806Z,8.00
2019-04-21T06:29:55.820Z,7.83
2019-04-21T06:33:27.875Z,7.73
2019-04-21T06:37:54.986Z,7.80
2019-04-21T06:42:40.117Z,7.67
2019-04-21T06:45:14.259Z,7.93
2019-04-21T06:47:42.337Z,8.17
2019-04-21T06:50:12.241Z,8.77
2019-04-21T06:52:52.150Z,8.20
2019-04-21T06:55:15.507Z,8.20
2019-04-21T06:57:39.981Z,8.37
2019-04-21T07:00:07.463Z,8.53
2019-04-21T07:03:01.186Z,8.67
2019-04-21T07:05:07.905Z,8.63
2019-04-21T07:07:43.649Z,7.37
2019-04-21T07:10:12.252Z,8.53
2019-04-21T07:12:37.136Z,9.00
2019-04-21T07:15:03.319Z,8.37
2019-04-21T07:17:33.688Z,8.80
2019-04-21T07:25:12.368Z,7.83
2019-04-21T07:27:44.971Z,8.80
2019-04-21T07:30:14.968Z,8.50
2019-04-21T07:32:40.080Z,8.50
2019-04-21T07:35:08.315Z,9.53
2019-04-21T07:37:35.395Z,9.30
2019-04-21T07:40:00.136Z,8.13
2019-04-21T07:42:32.493Z,8.13
2019-04-21T07:44:59.346Z,9.40
2019-04-21T07:47:49.317Z,8.27
2019-04-21T07:50:20.627Z,7.87
2019-04-21T07:53:14.203Z,8.13
2019-04-21T07:58:22.583Z,8.37
2019-04-21T08:00:45.508Z,8.47
2019-04-21T08:03:09.288Z,7.73
2019-04-21T08:05:37.539Z,7.90
2019-04-21T08:07:57.763Z,8.30
2019-04-21T08:10:32.738Z,7.90
2019-04-21T08:13:09.530Z,8.57
2019-04-21T08:15:42.695Z,7.23
2019-04-21T08:18:07.239Z,7.43
2019-04-21T08:20:34.852Z,6.80
2019-04-21T08:23:10.039Z,7.03
2019-04-21T08:25:49.087Z,7.67
2019-04-21T08:28:05.208Z,8.10
2019-04-21T08:30:37.447Z,9.07
2019-04-21T08:38:10.371Z,7.03
2019-04-21T08:40:36.443Z,6.63
2019-04-21T08:42:59.825Z,7.20
2019-04-21T08:45:35.351Z,6.97
2019-04-21T08:48:05.892Z,6.87
2019-04-21T08:50:30.577Z,7.50
2019-04-21T08:53:07.869Z,6.73
2019-04-21T08:56:07.790Z,6.37
2019-04-21T08:58:52.891Z,5.97
2019-04-21T09:01:39.839Z,6.33
2019-04-21T09:04:21.689Z,7.23
2019-04-21T09:06:54.294Z,6.40
2019-04-21T09:09:11.380Z,6.40
2019-04-21T09:11:46.186Z,5.63
2019-04-21T09:14:07.512Z,6.00
2019-04-21T09:16:35.171Z,6.40
2019-04-21T09:19:04.486Z,5.20
2019-04-21T09:21:39.473Z,5.93
2019-04-21T09:24:11.614Z,5.10
2019-04-21T09:26:34.029Z,6.13
2019-04-21T09:29:03.418Z,4.80
2019-04-21T09:31:26.997Z,5.93
2019-04-21T09:33:53.988Z,4.97
2019-04-21T09:36:23.347Z,4.80
2019-04-21T09:38:59.294Z,5.10
2019-04-21T09:41:23.754Z,4.53
2019-04-21T09:43:53.632Z,5.10
2019-04-21T09:46:20.868Z,5.40
2019-04-21T09:48:57.180Z,4.83
2019-04-21T09:51:20.819Z,5.37
2019-04-21T09:53:58.708Z,5.67
2019-04-21T09:56:31.152Z,4.77
2019-04-21T09:58:52.102Z,3.63
2019-04-21T10:01:26.818Z,4.57
2019-04-21T10:03:53.303Z,4.90
2019-04-21T10:06:19.565Z,4.30
2019-04-21T10:08:50.378Z,4.90
2019-04-21T10:11:20.890Z,4.43
2019-04-21T10:13:49.075Z,4.80
2019-04-21T10:16:45.576Z,4.20
2019-04-21T10:19:13.752Z,3.83
2019-04-21T10:21:42.346Z,4.40
2019-04-21T10:24:10.638Z,4.33
2019-04-21T10:26:38.796Z,3.93
2019-04-21T10:29:14.733Z,3.53
2019-04-21T10:31:36.837Z,4.73
2019-04-21T10:34:07.431Z,4.50
2019-04-21T10:36:35.741Z,4.80
2019-04-21T10:39:04.363Z,4.20
2019-04-21T10:41:35.126Z,4.63
2019-04-21T10:44:04.973Z,4.40
2019-04-21T10:46:33.149Z,4.20
2019-04-21T10:49:01.165Z,4.63
2019-04-21T10:51:29.271Z,5.00
2019-04-21T10:53:57.940Z,5.20
2019-04-21T10:56:31.485Z,4.60
2019-04-21T10:58:56.282Z,5.23
2019-04-21T11:01:27.407Z,5.90
2019-04-21T11:04:17.257Z,4.20
2019-04-21T11:06:38.882Z,5.47
2019-04-21T11:09:08.904Z,4.43
2019-04-21T11:11:39.745Z,4.73
2019-04-21T11:14:10.608Z,4.80
2019-04-21T11:16:41.613Z,4.60
2019-04-21T11:19:11.636Z,3.90
2019-04-21T11:21:40.888Z,4.73
2019-04-21T11:24:10.256Z,4.20
2019-04-21T11:26:40.048Z,4.53
2019-04-21T11:29:08.511Z,4.20
2019-04-21T11:31:38.932Z,4.20
2019-04-21T11:34:07.276Z,4.43
2019-04-21T11:36:35.585Z,4.10
2019-04-21T11:39:24.650Z,3.70
2019-04-21T11:41:47.976Z,4.17
2019-04-21T11:44:16.338Z,4.10
2019-04-21T11:46:44.815Z,4.17
2019-04-21T11:49:13.089Z,3.30
2019-04-21T11:51:41.279Z,4.53
2019-04-21T11:54:10.810Z,3.77
2019-04-21T11:56:39.209Z,3.70
2019-04-21T11:59:08.020Z,4.07
2019-04-21T12:01:37.407Z,4.27
2019-04-21T12:04:05.679Z,3.50
2019-04-21T12:06:43.125Z,3.57
2019-04-21T12:09:07.870Z,4.00
2019-04-21T12:11:36.246Z,3.70
2019-04-21T12:14:05.890Z,3.30
2019-04-21T12:16:35.109Z,3.30
2019-04-21T12:19:03.424Z,4.07
2019-04-21T12:21:47.919Z,3.40
2019-04-21T12:24:02.719Z,3.60
2019-04-21T12:26:31.812Z,3.73
2019-04-21T12:29:01.975Z,3.43
2019-04-21T12:31:45.487Z,3.33
2019-04-21T12:34:14.491Z,3.87
2019-04-21T12:36:43.738Z,3.80
2019-04-21T12:39:12.816Z,3.50
2019-04-21T12:41:42.494Z,3.40
2019-04-21T12:44:10.971Z,3.17
2019-04-21T12:46:40.166Z,3.00
2019-04-21T12:49:09.816Z,3.27
2019-04-21T12:51:39.671Z,3.87
2019-04-21T12:54:08.078Z,3.83
2019-04-21T12:56:38.198Z,3.30
2019-04-21T12:59:06.259Z,3.77
2019-04-21T13:01:34.977Z,3.80
2019-04-21T13:04:03.906Z,3.50
2019-04-21T13:06:32.223Z,3.20
2019-04-21T13:09:05.232Z,3.33
2019-04-21T13:11:30.967Z,3.67
2019-04-21T13:13:59.838Z,4.07
2019-04-21T13:16:29.474Z,3.20
2019-04-21T13:18:57.891Z,3.30
2019-04-21T13:21:26.066Z,3.30
2019-04-21T13:23:54.762Z,3.57
2019-04-21T13:26:32.804Z,3.47
2019-04-21T13:28:54.226Z,3.43
2019-04-21T13:31:24.561Z,3.13
2019-04-21T13:33:52.337Z,3.63
2019-04-21T13:36:21.354Z,3.30
2019-04-21T13:39:55.595Z,3.50
2019-04-21T13:42:09.828Z,3.67
2019-04-21T13:44:27.152Z,3.33
2019-04-21T13:46:58.792Z,3.30
2019-04-21T13:49:27.458Z,4.23
2019-04-21T13:51:56.118Z,3.93
2019-04-21T13:54:25.421Z,3.30
2019-04-21T13:56:56.534Z,3.80
2019-04-21T13:59:26.454Z,3.30
2019-04-21T14:01:54.865Z,3.57
2019-04-21T14:04:23.379Z,3.43
2019-04-21T14:06:52.221Z,3.30
2019-04-21T14:09:21.758Z,4.03
2019-04-21T14:11:52.552Z,3.50
2019-04-21T14:14:20.694Z,3.33
2019-04-21T14:16:49.942Z,3.67
2019-04-21T14:19:19.297Z,3.73
2019-04-21T14:21:49.834Z,3.73
2019-04-21T14:24:19.013Z,3.70
2019-04-21T14:26:47.929Z,3.57
2019-04-21T14:29:17.510Z,3.30
2019-04-21T14:31:46.439Z,4.20
2019-04-21T14:34:16.210Z,3.00
2019-04-21T14:36:44.647Z,3.30
2019-04-21T14:39:12.772Z,3.57
2019-04-21T14:41:42.240Z,3.93
2019-04-21T14:44:11.084Z,3.13
2019-04-21T14:47:11.236Z,4.07
2019-04-21T14:50:01.294Z,3.80
2019-04-21T14:52:34.990Z,3.90
2019-04-21T14:55:18.826Z,3.83
2019-04-21T14:57:47.392Z,3.67
2019-04-21T15:00:15.893Z,4.10
2019-04-21T15:02:45.452Z,4.20
2019-04-21T15:05:13.878Z,4.30
2019-04-21T15:07:43.403Z,4.10
2019-04-21T15:10:18.451Z,4.43
2019-04-21T15:12:41.588Z,3.97
2019-04-21T15:15:10.055Z,3.60
2019-04-21T15:17:39.793Z,3.87
2019-04-21T15:20:13.377Z,4.63
2019-04-21T15:22:38.989Z,4.10
2019-04-21T15:25:08.029Z,3.93
2019-04-21T15:27:36.905Z,4.03
2019-04-21T15:30:06.857Z,4.00
2019-04-21T15:32:35.070Z,4.63
2019-04-21T15:35:04.038Z,3.53
2019-04-21T15:37:33.540Z,4.00
2019-04-21T15:40:12.250Z,4.03
2019-04-21T15:42:32.596Z,3.60
2019-04-21T15:45:01.052Z,4.27
2019-04-21T15:47:31.802Z,3.83
2019-04-21T15:50:06.489Z,4.30
2019-04-21T15:52:30.048Z,3.40
2019-04-21T15:55:17.174Z,3.30
2019-04-21T15:57:52.525Z,4.30
2019-04-21T16:00:26.765Z,3.87
2019-04-21T16:02:55.119Z,3.90
2019-04-21T16:05:24.467Z,4.07
2019-04-21T16:07:54.097Z,4.60
2019-04-21T16:10:34.373Z,4.10
2019-04-21T16:12:53.714Z,4.17
2019-04-21T16:15:22.868Z,4.20
2019-04-21T16:17:51.350Z,4.23
2019-04-21T16:20:19.846Z,3.97
2019-04-21T16:22:48.647Z,4.23
2019-04-21T16:25:17.071Z,3.80
2019-04-21T16:27:47.661Z,4.67
2019-04-21T16:30:15.594Z,3.90
2019-04-21T16:32:44.031Z,3.77
2019-04-21T16:35:14.443Z,5.13
2019-04-21T16:37:43.550Z,4.00
2019-04-21T16:40:13.756Z,3.93
2019-04-21T16:42:42.540Z,4.40
2019-04-21T16:45:10.991Z,3.77
2019-04-21T16:47:40.024Z,4.20
2019-04-21T16:50:09.759Z,3.67
2019-04-21T16:52:46.060Z,3.77
2019-04-21T16:55:28.926Z,4.50
2019-04-21T16:58:20.592Z,4.60
2019-04-21T17:00:58.629Z,4.13
2019-04-21T17:03:19.205Z,4.13
2019-04-21T17:05:48.144Z,3.90
2019-04-21T17:08:17.741Z,4.00
2019-04-21T17:11:00.693Z,4.70
2019-04-21T17:13:15.740Z,5.13
2019-04-21T17:15:59.718Z,4.00
2019-04-21T17:18:31.639Z,3.77
2019-04-21T17:20:52.399Z,4.30
2019-04-21T17:23:17.570Z,4.47
2019-04-21T17:25:45.722Z,4.00
2019-04-21T17:28:13.894Z,3.70
2019-04-21T17:30:44.413Z,3.87
2019-04-21T17:33:16.174Z,3.70
2019-04-21T17:35:42.792Z,4.23
2019-04-21T17:38:12.093Z,4.97
2019-04-21T17:40:40.192Z,5.00
2019-04-21T17:43:13.867Z,3.93
2019-04-21T17:45:39.347Z,5.33
2019-04-21T17:48:11.181Z,3.70
2019-04-21T17:50:56.472Z,3.57
2019-04-21T17:53:36.336Z,4.33
2019-04-21T17:56:24.485Z,4.43
2019-04-21T17:58:52.938Z,3.53
2019-04-21T18:01:32.250Z,3.57
2019-04-21T18:03:58.993Z,4.10
2019-04-21T18:06:14.245Z,4.10
2019-04-21T18:08:52.998Z,4.07
2019-04-21T18:11:10.300Z,4.20
2019-04-21T18:13:34.657Z,4.17
2019-04-21T18:16:18.106Z,3.70
2019-04-21T18:18:34.935Z,4.13
2019-04-21T18:21:09.083Z,4.77
2019-04-21T18:23:50.614Z,4.53
2019-04-21T18:26:25.980Z,3.93
2019-04-21T18:28:42.308Z,3.90
2019-04-21T18:31:14.638Z,4.77
2019-04-21T18:33:59.011Z,4.47
2019-04-21T18:36:47.826Z,5.00
2019-04-21T18:39:46.183Z,4.97
2019-04-21T18:42:42.740Z,4.87
2019-04-21T18:45:47.993Z,5.43
2019-04-21T18:48:11.183Z,6.60
2019-04-21T18:50:47.799Z,6.67
2019-04-21T18:53:50.322Z,7.33
2019-04-21T18:56:07.710Z,7.27
2019-04-21T18:58:32.664Z,6.83
2019-04-21T19:01:07.556Z,7.20
2019-04-21T19:03:36.751Z,5.70
2019-04-21T19:06:08.063Z,6.13
2019-04-21T19:08:53.477Z,6.50
2019-04-21T19:11:22.205Z,5.83
2019-04-21T19:14:23.545Z,6.07
2019-04-21T19:16:42.906Z,6.97
2019-04-21T19:21:32.767Z,7.83
2019-04-21T19:24:18.570Z,8.73
2019-04-21T19:26:46.804Z,7.60
2019-04-21T19:29:19.967Z,8.20
2019-04-21T19:31:46.701Z,9.57
2019-04-21T19:34:04.722Z,8.50
2019-04-21T19:36:23.531Z,7.40
2019-04-21T19:39:03.700Z,7.93
2019-04-21T19:41:38.264Z,7.07
2019-04-21T19:44:13.659Z,7.27
2019-04-21T19:46:38.026Z,8.00
2019-04-21T19:49:19.671Z,7.47
2019-04-21T19:51:37.798Z,8.40
2019-04-21T19:54:01.351Z,8.37
2019-04-21T19:56:22.170Z,9.20
2019-04-21T19:58:50.859Z,8.53
2019-04-21T20:01:21.362Z,8.07
2019-04-21T20:03:55.822Z,8.10
2019-04-21T20:06:33.031Z,8.43
2019-04-21T20:09:12.282Z,8.47
2019-04-21T20:11:38.733Z,8.93
2019-04-21T20:14:37.936Z,7.83
2019-04-21T20:16:41.683Z,8.83
2019-04-21T20:18:57.359Z,8.90
2019-04-21T20:21:20.870Z,8.70
2019-04-21T20:23:49.452Z,8.53
2019-04-21T20:26:24.646Z,7.90
2019-04-21T20:28:58.855Z,8.60
2019-04-21T20:31:30.116Z,7.87
2019-04-21T20:34:07.741Z,8.00
2019-04-21T20:36:36.519Z,7.90
2019-04-21T20:38:54.942Z,8.07
2019-04-21T20:41:26.875Z,8.33
2019-04-21T20:44:06.166Z,8.93
2019-04-21T20:46:36.797Z,8.27
2019-04-21T20:48:59.930Z,8.13
2019-04-21T20:51:35.712Z,8.37
2019-04-21T20:54:01.832Z,8.90
2019-04-21T20:56:27.707Z,9.20
2019-04-21T20:59:01.276Z,8.30
2019-04-21T21:01:34.796Z,9.20
2019-04-21T21:03:58.032Z,8.07
2019-04-21T21:06:33.710Z,8.73
2019-04-21T21:09:07.366Z,9.43
2019-04-21T21:11:42.932Z,8.90
2019-04-21T21:14:07.390Z,9.30
2019-04-21T21:16:44.906Z,9.37
2019-04-21T21:19:18.741Z,10.13
2019-04-21T21:21:32.712Z,9.30
2019-04-21T21:24:07.106Z,8.97
2019-04-21T21:26:33.511Z,9.47
2019-04-21T21:29:00.296Z,10.43
2019-04-21T21:31:40.066Z,9.13
2019-04-21T21:34:20.894Z,9.97
2019-04-21T21:36:33.540Z,9.20
2019-04-21T21:39:09.197Z,8.70
2019-04-21T21:41:24.454Z,8.33
2019-04-21T21:43:57.031Z,7.13
2019-04-21T21:46:37.169Z,7.57
2019-04-21T21:48:58.690Z,6.63
2019-04-21T21:51:27.325Z,7.10
2019-04-21T21:53:46.089Z,6.73
2019-04-21T21:56:14.580Z,7.20
2019-04-21T21:58:44.757Z,6.83
2019-04-21T22:01:14.787Z,7.17
2019-04-21T22:03:46.560Z,6.30
2019-04-21T22:06:16.363Z,6.30
2019-04-21T22:08:42.612Z,6.07
2019-04-21T22:11:10.996Z,5.87
2019-04-21T22:13:49.017Z,5.90
2019-04-21T22:16:13.681Z,5.33
2019-04-21T22:19:02.737Z,5.80
2019-04-21T22:21:18.764Z,6.53
2019-04-21T22:23:47.832Z,5.80
2019-04-21T22:26:09.158Z,5.30
2019-04-21T22:28:38.405Z,4.73
2019-04-21T22:31:14.972Z,5.03
2019-04-21T22:33:41.871Z,5.23
2019-04-21T22:36:23.594Z,4.80
2019-04-21T22:38:47.721Z,4.90
2019-04-21T22:41:15.155Z,4.53
2019-04-21T22:43:40.436Z,4.70
2019-04-21T22:46:07.644Z,4.70
2019-04-21T22:48:36.690Z,4.67
2019-04-21T22:51:08.757Z,5.53
2019-04-21T22:53:42.845Z,5.40
2019-04-21T22:56:14.981Z,4.70
2019-04-21T22:58:40.454Z,5.23
2019-04-21T23:01:08.780Z,4.53
2019-04-21T23:03:35.820Z,4.63
2019-04-21T23:06:10.922Z,4.80
2019-04-21T23:08:38.406Z,4.80
2019-04-21T23:11:09.918Z,5.20
2019-04-21T23:13:36.389Z,5.27
2019-04-21T23:16:06.219Z,4.80
2019-04-21T23:18:46.380Z,5.17
2019-04-21T23:21:17.644Z,4.57
2019-04-21T23:23:57.718Z,4.57
2019-04-21T23:26:29.762Z,5.03
2019-04-21T23:28:56.860Z,5.13
2019-04-21T23:31:27.281Z,4.53
2019-04-21T23:33:34.604Z,5.00
2019-04-21T23:36:11.083Z,5.20
2019-04-21T23:38:39.962Z,4.93
2019-04-21T23:41:05.572Z,4.87
2019-04-21T23:43:34.646Z,4.13
2019-04-21T23:46:08.891Z,4.00
2019-04-21T23:48:44.254Z,4.87
2019-04-21T23:51:13.884Z,4.10
2019-04-21T23:53:31.122Z,5.23
2019-04-21T23:55:59.346Z,4.37
2019-04-21T23:58:30.015Z,4.17
